Time;durP1;ratioP1;P1;durP2;ratioP2;P2;SDS_P1;SDS_P2;PMS_P1;PMS_P2;Temp;Humidity;BMP_temperature;BMP_pressure;BME280_temperature;BME280_humidity;BME280_pressure;Samples;Min_cycle;Max_cycle;Signal;HPM_P1;HPM_P2
2023/09/23 00:02:26;;;;;;;5.10;0.68;;;10.70;99.90;;;;;;5004369;28;20021;-80
2023/09/23 00:05:17;;;;;;;0.93;0.40;;;10.80;99.90;;;;;;5018434;28;20014;-80
2023/09/23 00:08:28;;;;;;;0.45;0.20;;;10.70;99.90;;;;;;5017983;28;20030;-79
2023/09/23 00:14:45;;;;;;;0.50;0.50;;;10.60;99.90;;;;;;5019131;28;20082;-83
2023/09/23 00:18:19;;;;;;;1.27;0.35;;;10.50;99.90;;;;;;5018440;28;20037;-80
2023/09/23 00:21:21;;;;;;;1.85;0.80;;;10.40;99.90;;;;;;5018921;28;20045;-82
2023/09/23 00:24:21;;;;;;;2.55;0.40;;;10.30;99.90;;;;;;5175965;22;20034;-82
2023/09/23 00:27:32;;;;;;;10.27;1.07;;;10.60;99.90;;;;;;5026514;28;20066;-83
2023/09/23 00:31:10;;;;;;;0.32;0.30;;;10.30;99.90;;;;;;5018855;28;20283;-81
2023/09/23 00:34:48;;;;;;;0.30;0.30;;;10.30;99.90;;;;;;4997962;28;20031;-84
2023/09/23 00:38:02;;;;;;;0.57;0.45;;;9.20;99.90;;;;;;4997899;28;20019;-83
2023/09/23 00:40:33;;;;;;;0.30;0.30;;;10.00;99.90;;;;;;4971508;28;20058;-82
2023/09/23 00:43:11;;;;;;;0.35;0.35;;;9.90;99.90;;;;;;4964196;28;20042;-77
2023/09/23 00:45:38;;;;;;;1.60;0.65;;;9.80;99.90;;;;;;4966205;28;20038;-81
2023/09/23 00:48:08;;;;;;;0.20;0.20;;;9.70;99.90;;;;;;4972220;28;20031;-82
2023/09/23 00:50:34;;;;;;;1.02;0.52;;;9.60;99.90;;;;;;4970676;28;20043;-80
2023/09/23 00:53:00;;;;;;;1.50;0.60;;;9.60;99.90;;;;;;4970566;28;20082;-78
2023/09/23 00:55:30;;;;;;;1.23;0.52;;;9.50;99.90;;;;;;4980421;28;20038;-81
2023/09/23 00:58:00;;;;;;;0.50;0.50;;;9.50;99.90;;;;;;4965943;28;20099;-79
2023/09/23 01:00:29;;;;;;;0.63;0.63;;;9.30;99.90;;;;;;4989907;28;20076;-79
2023/09/23 01:02:55;;;;;;;0.40;0.40;;;9.10;99.90;;;;;;5023442;28;20018;-81
2023/09/23 01:05:28;;;;;;;0.20;0.20;;;9.10;99.90;;;;;;5002468;28;20649;-83
2023/09/23 01:07:56;;;;;;;0.15;0.15;;;9.10;99.90;;;;;;4997189;28;20033;-79
2023/09/23 01:10:23;;;;;;;0.30;0.20;;;9.00;99.90;;;;;;4997738;28;20109;-79
2023/09/23 01:12:49;;;;;;;0.70;0.70;;;8.90;99.90;;;;;;5004418;28;20018;-81
2023/09/23 01:15:17;;;;;;;0.30;0.30;;;9.00;99.90;;;;;;5007545;28;20034;-81
2023/09/23 01:17:48;;;;;;;0.90;0.20;;;9.00;99.90;;;;;;5024429;28;20041;-80
2023/09/23 01:20:13;;;;;;;0.30;0.30;;;8.90;99.90;;;;;;5024837;28;20036;-80
2023/09/23 01:22:39;;;;;;;0.38;0.38;;;8.80;99.90;;;;;;5006088;28;20022;-82
2023/09/23 01:25:05;;;;;;;0.43;0.43;;;8.80;99.90;;;;;;5062436;28;20053;-83
2023/09/23 01:27:34;;;;;;;0.80;0.38;;;8.70;99.90;;;;;;5067194;28;20013;-81
2023/09/23 01:30:04;;;;;;;1.25;0.82;;;8.60;99.90;;;;;;5050933;28;20448;-81
2023/09/23 01:32:41;;;;;;;0.45;0.45;;;8.60;99.90;;;;;;5055784;28;20091;-81
2023/09/23 01:35:09;;;;;;;0.52;0.52;;;8.50;99.90;;;;;;5052284;28;20516;-81
2023/09/23 01:37:35;;;;;;;0.98;0.63;;;8.50;99.90;;;;;;5047900;28;20083;-81
2023/09/23 01:40:02;;;;;;;0.70;0.57;;;8.40;99.90;;;;;;5046193;28;20039;-79
2023/09/23 01:42:30;;;;;;;2.88;0.77;;;8.40;99.90;;;;;;5052256;28;20021;-83
2023/09/23 01:44:57;;;;;;;0.80;0.35;;;8.30;99.90;;;;;;5050898;28;20029;-80
2023/09/23 01:47:23;;;;;;;0.60;0.60;;;8.20;99.90;;;;;;5059036;28;20164;-82
2023/09/23 01:49:49;;;;;;;4.28;0.50;;;8.20;99.90;;;;;;5051975;28;20047;-82
2023/09/23 01:52:17;;;;;;;0.32;0.30;;;8.20;99.90;;;;;;5052660;28;20013;-81
2023/09/23 01:54:47;;;;;;;0.32;0.30;;;8.10;99.90;;;;;;5072034;28;20022;-81
2023/09/23 01:57:16;;;;;;;1.65;0.63;;;8.00;99.90;;;;;;5053373;28;20021;-82
2023/09/23 01:59:43;;;;;;;0.60;0.60;;;8.00;99.90;;;;;;5069049;28;20428;-80
2023/09/23 02:02:09;;;;;;;0.55;0.55;;;8.00;99.90;;;;;;5049908;28;20057;-83
2023/09/23 02:04:37;;;;;;;0.50;0.50;;;7.90;99.90;;;;;;5067453;28;20051;-80
2023/09/23 02:07:03;;;;;;;1.02;0.60;;;8.00;99.90;;;;;;5050027;28;20028;-79
2023/09/23 02:09:39;;;;;;;0.20;0.20;;;8.00;99.90;;;;;;5049604;28;20035;-77
2023/09/23 02:12:05;;;;;;;1.10;1.00;;;8.00;99.90;;;;;;5052783;28;20053;-78
2023/09/23 02:14:30;;;;;;;0.40;0.30;;;8.00;99.90;;;;;;5067868;28;20012;-79
2023/09/23 02:16:57;;;;;;;0.63;0.40;;;8.00;99.90;;;;;;5043833;28;20044;-77
2023/09/23 02:19:27;;;;;;;2.72;0.90;;;8.00;99.90;;;;;;5055468;28;20108;-77
2023/09/23 02:21:53;;;;;;;0.28;0.28;;;7.90;99.90;;;;;;5055922;28;20045;-77
2023/09/23 02:24:19;;;;;;;8.40;1.08;;;7.90;99.90;;;;;;5053481;28;20060;-78
2023/09/23 02:26:45;;;;;;;0.82;0.40;;;7.90;99.90;;;;;;5056784;28;20029;-77
2023/09/23 02:29:14;;;;;;;1.30;0.70;;;7.90;99.90;;;;;;5056611;28;20114;-78
2023/09/23 02:31:46;;;;;;;6.72;0.73;;;7.90;99.90;;;;;;5069276;28;20230;-79
2023/09/23 02:34:13;;;;;;;0.75;0.57;;;7.90;99.90;;;;;;5064864;28;20056;-81
2023/09/23 02:36:39;;;;;;;0.20;0.20;;;7.90;99.90;;;;;;5056566;28;20120;-77
2023/09/23 02:39:06;;;;;;;1.38;1.00;;;8.00;99.90;;;;;;5056894;28;20051;-78
2023/09/23 02:41:33;;;;;;;0.43;0.40;;;7.90;99.90;;;;;;5058733;28;20342;-78
2023/09/23 02:43:58;;;;;;;0.45;0.45;;;8.00;99.90;;;;;;5056691;28;20025;-78
2023/09/23 02:46:24;;;;;;;4.97;0.52;;;7.90;99.90;;;;;;5055683;28;20031;-77
2023/09/23 02:48:49;;;;;;;0.85;0.50;;;7.80;99.90;;;;;;5076482;28;20084;-77
2023/09/23 02:51:15;;;;;;;0.20;0.20;;;7.80;99.90;;;;;;5041290;28;20047;-78
2023/09/23 02:53:40;;;;;;;0.45;0.45;;;7.80;99.90;;;;;;5050513;28;20070;-78
2023/09/23 02:56:07;;;;;;;2.25;0.43;;;7.80;99.90;;;;;;5032982;28;20385;-78
2023/09/23 02:58:33;;;;;;;0.40;0.40;;;7.80;99.90;;;;;;5033213;28;20025;-78
2023/09/23 03:01:04;;;;;;;0.57;0.30;;;7.70;99.90;;;;;;5033139;28;20406;-78
2023/09/23 03:03:30;;;;;;;1.00;0.40;;;7.70;99.90;;;;;;5033334;28;20055;-78
2023/09/23 03:05:57;;;;;;;1.42;0.93;;;7.90;99.90;;;;;;5032747;28;20013;-78
2023/09/23 03:08:23;;;;;;;0.20;0.20;;;7.90;99.90;;;;;;5034132;28;20032;-77
2023/09/23 03:10:51;;;;;;;0.93;0.30;;;7.90;99.90;;;;;;5052401;28;20277;-78
2023/09/23 03:13:18;;;;;;;2.25;0.65;;;7.90;99.90;;;;;;5051884;28;20498;-77
2023/09/23 03:16:28;;;;;;;0.40;0.40;;;7.90;99.90;;;;;;5034042;28;20072;-77
2023/09/23 03:18:55;;;;;;;4.18;1.20;;;7.90;99.90;;;;;;5047704;28;20037;-78
2023/09/23 03:21:20;;;;;;;0.40;0.40;;;7.90;99.90;;;;;;5033571;28;20029;-79
2023/09/23 03:23:46;;;;;;;0.40;0.40;;;7.90;99.90;;;;;;5033704;28;20102;-78
2023/09/23 03:26:11;;;;;;;1.38;0.52;;;7.90;99.90;;;;;;5051589;28;20391;-78
2023/09/23 03:28:39;;;;;;;2.72;0.55;;;7.90;99.90;;;;;;5033737;28;20020;-78
2023/09/23 03:31:08;;;;;;;0.22;0.20;;;7.90;99.90;;;;;;5051666;28;20044;-78
2023/09/23 03:33:35;;;;;;;0.98;0.40;;;7.80;99.90;;;;;;5051650;28;20429;-78
2023/09/23 03:36:01;;;;;;;0.90;0.20;;;7.80;99.90;;;;;;5033614;28;20119;-78
2023/09/23 03:38:28;;;;;;;0.35;0.22;;;7.70;99.90;;;;;;5033930;28;20489;-78
2023/09/23 03:40:59;;;;;;;0.52;0.38;;;7.80;99.90;;;;;;5051607;28;20016;-78
2023/09/23 03:43:25;;;;;;;0.40;0.40;;;7.90;99.90;;;;;;5033916;28;20124;-78
2023/09/23 03:45:52;;;;;;;0.63;0.63;;;7.90;99.90;;;;;;5033260;28;20029;-78
2023/09/23 03:48:17;;;;;;;1.55;0.40;;;7.90;99.90;;;;;;5033504;28;20021;-78
2023/09/23 03:50:43;;;;;;;0.20;0.20;;;7.80;99.90;;;;;;5032325;28;20086;-78
2023/09/23 03:53:12;;;;;;;1.17;0.40;;;7.80;99.90;;;;;;5033699;28;20292;-79
2023/09/23 03:55:38;;;;;;;0.22;0.22;;;7.80;99.90;;;;;;5033779;28;20021;-79
2023/09/23 03:58:04;;;;;;;0.52;0.30;;;7.90;99.90;;;;;;5051527;28;20100;-79
2023/09/23 04:00:36;;;;;;;2.00;0.52;;;7.90;99.90;;;;;;5051548;28;20025;-78
2023/09/23 04:03:01;;;;;;;1.08;0.52;;;7.90;99.90;;;;;;5051626;28;20375;-79
2023/09/23 04:05:30;;;;;;;0.40;0.40;;;7.90;99.90;;;;;;5051711;28;20039;-79
2023/09/23 04:07:56;;;;;;;0.50;0.50;;;8.00;99.90;;;;;;5052116;28;20025;-79
2023/09/23 04:10:25;;;;;;;4.47;0.80;;;7.90;99.90;;;;;;5033524;28;20569;-77
2023/09/23 04:12:51;;;;;;;0.73;0.30;;;7.90;99.90;;;;;;5051263;28;20032;-78
2023/09/23 04:15:19;;;;;;;0.70;0.68;;;7.80;99.90;;;;;;5051851;28;20092;-78
2023/09/23 04:17:45;;;;;;;0.60;0.60;;;7.70;99.90;;;;;;5034803;28;20029;-79
2023/09/23 04:20:10;;;;;;;0.70;0.70;;;7.70;99.90;;;;;;5052580;28;20058;-79
2023/09/23 04:22:37;;;;;;;1.38;0.40;;;7.60;99.90;;;;;;5051529;28;20025;-77
2023/09/23 04:25:08;;;;;;;0.47;0.40;;;7.60;99.90;;;;;;5050498;28;20049;-79
2023/09/23 04:27:36;;;;;;;0.32;0.32;;;7.60;99.90;;;;;;5032709;28;20033;-78
2023/09/23 04:30:05;;;;;;;0.65;0.22;;;7.50;99.90;;;;;;5050701;28;20036;-78
2023/09/23 04:32:31;;;;;;;3.90;0.85;;;7.50;99.90;;;;;;5032642;28;20182;-79
2023/09/23 04:34:57;;;;;;;3.45;0.60;;;7.60;99.90;;;;;;5050750;28;20484;-78
2023/09/23 04:37:27;;;;;;;0.90;0.80;;;7.50;99.90;;;;;;5032930;28;20021;-77
2023/09/23 04:39:53;;;;;;;1.48;0.40;;;7.50;99.90;;;;;;5032581;28;20159;-78
2023/09/23 04:42:21;;;;;;;0.43;0.43;;;7.60;99.90;;;;;;5050384;28;20501;-78
2023/09/23 04:44:47;;;;;;;0.98;0.47;;;7.50;99.90;;;;;;5050505;28;20025;-77
2023/09/23 04:47:14;;;;;;;0.95;0.60;;;7.50;99.90;;;;;;5050712;28;20462;-78
2023/09/23 04:49:40;;;;;;;0.40;0.40;;;7.50;99.90;;;;;;5032309;28;20636;-77
2023/09/23 04:52:06;;;;;;;0.95;0.70;;;7.30;99.90;;;;;;5032109;28;20103;-77
2023/09/23 04:54:32;;;;;;;0.60;0.45;;;7.40;99.90;;;;;;5032537;28;20119;-78
2023/09/23 04:56:57;;;;;;;7.70;0.60;;;7.30;99.90;;;;;;5050269;28;20016;-77
2023/09/23 04:59:23;;;;;;;1.77;0.28;;;7.30;99.90;;;;;;5032262;28;20259;-78
2023/09/23 05:01:49;;;;;;;0.50;0.50;;;7.20;99.90;;;;;;5031961;28;20060;-78
2023/09/23 05:04:15;;;;;;;1.17;0.45;;;7.30;99.90;;;;;;5050188;28;20546;-78
2023/09/23 05:06:40;;;;;;;0.43;0.43;;;7.20;99.90;;;;;;5032011;28;20027;-79
2023/09/23 05:09:08;;;;;;;1.08;0.47;;;7.20;99.90;;;;;;5032434;28;20535;-77
2023/09/23 05:11:33;;;;;;;1.27;1.17;;;7.20;99.90;;;;;;5033067;28;20036;-79
2023/09/23 05:13:59;;;;;;;0.50;0.40;;;7.20;99.90;;;;;;5034236;28;20111;-79
2023/09/23 05:16:24;;;;;;;0.30;0.30;;;7.20;99.90;;;;;;5051737;28;20095;-78
2023/09/23 05:18:50;;;;;;;1.13;0.30;;;7.20;99.90;;;;;;5051230;28;20029;-80
2023/09/23 05:21:18;;;;;;;0.40;0.40;;;7.20;99.90;;;;;;5034070;28;20454;-81
2023/09/23 05:23:48;;;;;;;0.60;0.60;;;7.10;99.90;;;;;;5051881;28;20041;-80
2023/09/23 05:26:16;;;;;;;1.33;0.40;;;7.10;99.90;;;;;;5034034;28;20123;-80
2023/09/23 05:28:44;;;;;;;0.52;0.52;;;7.10;99.90;;;;;;5033721;28;20564;-80
2023/09/23 05:31:13;;;;;;;2.07;0.43;;;7.20;99.90;;;;;;5051467;28;20021;-79
2023/09/23 05:33:40;;;;;;;0.55;0.40;;;7.20;99.90;;;;;;5050088;28;20047;-79
2023/09/23 05:36:06;;;;;;;0.60;0.60;;;7.20;99.90;;;;;;5031896;28;20405;-79
2023/09/23 05:38:36;;;;;;;0.30;0.30;;;7.10;99.90;;;;;;5032080;28;20021;-78
2023/09/23 05:41:04;;;;;;;1.70;0.40;;;7.10;99.90;;;;;;5032878;28;20476;-79
2023/09/23 05:43:30;;;;;;;1.30;0.30;;;7.10;99.90;;;;;;5032577;28;20518;-79
2023/09/23 05:45:56;;;;;;;0.52;0.30;;;7.40;99.90;;;;;;5050346;28;20111;-79
2023/09/23 05:48:22;;;;;;;2.40;0.38;;;7.40;99.90;;;;;;5032423;28;20456;-79
2023/09/23 05:50:49;;;;;;;0.20;0.20;;;7.40;99.90;;;;;;5050504;28;20043;-78
2023/09/23 05:53:14;;;;;;;6.85;1.05;;;7.50;99.90;;;;;;5032976;28;20083;-79
2023/09/23 05:55:40;;;;;;;0.40;0.40;;;7.50;99.90;;;;;;5049938;28;20017;-79
2023/09/23 05:58:06;;;;;;;0.28;0.28;;;7.50;99.90;;;;;;5032483;28;20355;-79
2023/09/23 06:00:32;;;;;;;16.00;1.15;;;7.70;99.90;;;;;;5050132;28;20087;-79
2023/09/23 06:02:57;;;;;;;0.65;0.45;;;7.70;99.90;;;;;;5050424;28;20075;-79
2023/09/23 06:05:23;;;;;;;1.15;0.50;;;7.60;99.90;;;;;;5032300;28;20083;-79
2023/09/23 06:07:49;;;;;;;2.60;0.50;;;7.70;99.90;;;;;;5031926;28;20033;-79
2023/09/23 06:10:15;;;;;;;0.20;0.20;;;7.70;99.90;;;;;;5049981;28;20090;-78
2023/09/23 06:12:40;;;;;;;0.47;0.40;;;7.80;99.90;;;;;;5049783;28;20018;-79
2023/09/23 06:15:08;;;;;;;1.40;0.47;;;7.90;99.90;;;;;;5053000;28;20366;-78
2023/09/23 06:17:35;;;;;;;0.55;0.28;;;7.90;99.90;;;;;;5035714;28;20385;-78
2023/09/23 06:20:01;;;;;;;1.95;0.77;;;7.90;99.90;;;;;;5053315;28;20053;-79
2023/09/23 06:22:27;;;;;;;0.60;0.60;;;7.80;99.90;;;;;;5054185;28;20483;-79
2023/09/23 06:24:54;;;;;;;0.45;0.45;;;7.90;99.90;;;;;;5035535;28;20073;-79
2023/09/23 06:27:20;;;;;;;0.93;0.63;;;7.90;99.90;;;;;;5035371;28;20059;-79
2023/09/23 06:29:46;;;;;;;3.55;0.60;;;7.90;99.90;;;;;;5035622;28;20045;-79
2023/09/23 06:32:12;;;;;;;0.73;0.73;;;7.90;99.90;;;;;;5053638;28;20044;-78
2023/09/23 06:34:38;;;;;;;3.10;0.45;;;7.90;99.90;;;;;;5053527;28;20021;-79
2023/09/23 06:37:04;;;;;;;0.45;0.45;;;8.00;99.90;;;;;;5053575;28;20029;-78
2023/09/23 06:39:30;;;;;;;1.23;0.60;;;8.00;99.90;;;;;;5035419;28;20033;-79
2023/09/23 06:41:56;;;;;;;0.20;0.20;;;8.10;99.90;;;;;;5035436;28;20042;-77
2023/09/23 06:44:22;;;;;;;0.40;0.40;;;8.10;99.90;;;;;;5035721;28;20115;-79
2023/09/23 06:46:49;;;;;;;1.77;1.27;;;8.10;99.90;;;;;;5035167;28;20104;-79
2023/09/23 06:49:15;;;;;;;0.68;0.60;;;8.20;99.90;;;;;;5052774;28;20492;-77
2023/09/23 06:51:41;;;;;;;0.73;0.73;;;8.20;99.90;;;;;;5034575;28;20025;-79
2023/09/23 06:54:07;;;;;;;2.15;0.73;;;8.30;99.90;;;;;;5034882;28;20040;-78
2023/09/23 06:56:34;;;;;;;0.40;0.40;;;8.40;99.90;;;;;;5052748;28;20064;-79
2023/09/23 06:59:00;;;;;;;5.43;0.60;;;8.50;99.90;;;;;;5034989;28;20017;-80
2023/09/23 07:01:26;;;;;;;1.85;0.85;;;8.50;99.90;;;;;;5053350;28;20080;-78
2023/09/23 07:03:52;;;;;;;0.40;0.40;;;8.50;99.90;;;;;;5053679;28;20029;-79
2023/09/23 07:06:17;;;;;;;0.98;0.43;;;8.60;99.90;;;;;;5053475;28;20044;-81
2023/09/23 07:08:43;;;;;;;0.45;0.45;;;8.60;99.90;;;;;;5053812;28;20044;-79
2023/09/23 07:11:13;;;;;;;0.50;0.50;;;8.70;99.90;;;;;;5034602;28;20036;-79
2023/09/23 07:13:39;;;;;;;0.30;0.30;;;8.70;99.90;;;;;;5035306;28;20025;-79
2023/09/23 07:16:05;;;;;;;0.90;0.57;;;8.70;99.90;;;;;;5053211;28;20076;-79
2023/09/23 07:18:31;;;;;;;1.50;0.70;;;8.90;99.90;;;;;;5035230;28;20044;-79
2023/09/23 07:20:57;;;;;;;2.72;0.65;;;9.10;99.90;;;;;;5034482;28;20025;-79
2023/09/23 07:23:23;;;;;;;5.20;0.90;;;9.20;99.90;;;;;;5052982;28;20444;-79
2023/09/23 07:25:49;;;;;;;4.18;1.50;;;9.40;99.90;;;;;;5048483;28;20462;-79
2023/09/23 07:28:14;;;;;;;3.75;0.50;;;9.50;99.90;;;;;;5070089;28;20032;-80
2023/09/23 07:30:56;;;;;;;0.45;0.45;;;9.60;99.90;;;;;;5070324;28;20057;-80
2023/09/23 07:34:00;;;;;;;1.45;0.50;;;9.70;99.90;;;;;;5080531;28;20001;-78
2023/09/23 07:37:16;;;;;;;4.60;1.90;;;9.80;99.90;;;;;;5079951;28;20017;-78
2023/09/23 07:39:53;;;;;;;1.13;0.73;;;9.90;99.90;;;;;;5060234;28;20021;-78
2023/09/23 07:52:54;;;;;;;1.50;1.15;;;9.30;99.90;;;;;;5068552;28;20054;-79
2023/09/23 07:56:06;;;;;;;2.92;0.93;;;10.60;99.90;;;;;;5079640;28;20006;-79
2023/09/23 07:59:10;;;;;;;0.65;0.65;;;10.70;99.90;;;;;;5079403;28;20040;-79
2023/09/23 08:01:53;;;;;;;0.80;0.80;;;10.80;99.90;;;;;;5062824;28;20029;-77
2023/09/23 08:04:19;;;;;;;9.43;5.57;;;10.90;99.90;;;;;;5059376;28;20027;-77
2023/09/23 08:06:45;;;;;;;5.57;3.28;;;11.10;99.90;;;;;;5040547;28;20123;-77
2023/09/23 08:09:18;;;;;;;0.60;0.60;;;11.20;99.90;;;;;;5054521;28;20021;-80
2023/09/23 08:11:45;;;;;;;0.70;0.52;;;11.30;99.90;;;;;;5056083;28;20060;-79
2023/09/23 08:14:11;;;;;;;0.80;0.40;;;11.40;99.90;;;;;;5068942;28;20276;-80
2023/09/23 08:16:37;;;;;;;3.17;0.55;;;11.60;99.90;;;;;;5064124;28;20285;-79
2023/09/23 08:19:07;;;;;;;1.92;0.75;;;11.70;99.90;;;;;;5067959;28;20021;-79
2023/09/23 08:21:34;;;;;;;2.75;0.80;;;11.90;99.90;;;;;;5052845;28;20029;-80
2023/09/23 08:24:00;;;;;;;1.25;0.80;;;12.10;99.90;;;;;;5051960;28;20225;-79
2023/09/23 08:26:26;;;;;;;0.32;0.32;;;12.20;99.90;;;;;;5047601;28;20035;-80
2023/09/23 08:29:26;;;;;;;0.52;0.52;;;12.40;99.90;;;;;;5037944;28;20032;-79
2023/09/23 08:31:53;;;;;;;1.40;0.60;;;12.60;99.90;;;;;;5045307;28;20044;-79
2023/09/23 08:34:24;;;;;;;4.22;3.30;;;12.80;99.90;;;;;;5046507;28;20062;-79
2023/09/23 08:36:52;;;;;;;1.73;1.63;;;13.00;99.90;;;;;;5066606;28;20554;-80
2023/09/23 08:39:18;;;;;;;0.60;0.50;;;13.30;99.90;;;;;;5057404;28;20036;-81
2023/09/23 08:42:24;;;;;;;0.30;0.30;;;13.60;99.90;;;;;;5076308;28;20013;-79
2023/09/23 08:44:51;;;;;;;0.30;0.30;;;14.10;99.90;;;;;;5058113;28;20280;-80
2023/09/23 08:47:38;;;;;;;3.13;0.40;;;14.20;99.90;;;;;;5060534;28;20016;-79
2023/09/23 08:50:18;;;;;;;0.45;0.45;;;14.20;99.90;;;;;;5070962;28;20036;-81
2023/09/23 08:52:45;;;;;;;0.47;0.30;;;14.20;99.90;;;;;;5059750;28;20049;-82
2023/09/23 08:55:15;;;;;;;0.85;0.85;;;14.20;99.90;;;;;;5072131;28;20041;-81
2023/09/23 08:57:42;;;;;;;1.65;0.65;;;14.20;99.90;;;;;;5039322;28;20036;-80
2023/09/23 09:00:10;;;;;;;2.00;0.65;;;14.40;99.90;;;;;;5070360;28;20013;-79
2023/09/23 09:02:37;;;;;;;2.38;0.40;;;14.50;99.90;;;;;;5049629;28;20017;-80
2023/09/23 09:05:25;;;;;;;0.30;0.30;;;14.80;99.90;;;;;;5055435;28;20104;-80
2023/09/23 09:07:51;;;;;;;0.65;0.57;;;15.00;99.90;;;;;;5052882;28;20028;-81
2023/09/23 09:10:37;;;;;;;0.77;0.30;;;15.40;99.90;;;;;;5049034;28;20059;-81
2023/09/23 09:13:05;;;;;;;0.38;0.28;;;15.60;99.90;;;;;;5074321;28;20013;-80
2023/09/23 09:15:35;;;;;;;0.43;0.43;;;15.50;99.90;;;;;;5055568;28;20025;-80
2023/09/23 09:18:03;;;;;;;0.65;0.35;;;14.30;99.90;;;;;;5053066;28;20057;-79
2023/09/23 09:20:30;;;;;;;2.28;0.30;;;15.50;99.90;;;;;;5053289;28;20027;-80
2023/09/23 09:22:57;;;;;;;1.52;0.40;;;15.30;99.90;;;;;;5020943;28;20021;-79
2023/09/23 09:25:26;;;;;;;0.70;0.35;;;15.20;99.90;;;;;;5054350;28;20100;-78
2023/09/23 09:27:52;;;;;;;1.02;0.30;;;15.10;99.90;;;;;;5036557;28;20045;-79
2023/09/23 09:30:22;;;;;;;1.77;0.47;;;15.00;99.90;;;;;;5058683;28;20112;-80
2023/09/23 09:36:20;;;;;;;3.20;0.68;;;14.70;99.90;;;;;;5073467;28;20029;-78
2023/09/23 09:38:59;;;;;;;0.85;0.68;;;15.50;99.90;;;;;;5076918;28;20013;-79
2023/09/23 09:41:33;;;;;;;1.42;0.60;;;15.00;99.90;;;;;;5045643;28;20079;-79
2023/09/23 09:44:34;;;;;;;1.40;0.85;;;15.00;99.90;;;;;;5068239;28;20028;-80
2023/09/23 09:47:05;;;;;;;0.47;0.45;;;15.00;99.90;;;;;;5072543;28;20021;-79
2023/09/23 09:49:34;;;;;;;0.88;0.10;;;15.20;99.90;;;;;;5064638;28;20048;-80
2023/09/23 09:52:00;;;;;;;1.08;0.20;;;15.30;99.90;;;;;;5088096;28;20104;-79
2023/09/23 09:55:24;;;;;;;0.35;0.25;;;15.50;99.90;;;;;;5067121;28;20024;-80
2023/09/23 09:57:54;;;;;;;0.30;0.30;;;15.70;99.90;;;;;;5073180;28;20035;-82
2023/09/23 10:00:33;;;;;;;0.47;0.47;;;16.10;99.90;;;;;;5040918;28;20032;-89
2023/09/23 10:03:05;;;;;;;0.47;0.22;;;16.40;99.90;;;;;;5088488;28;20017;-80
2023/09/23 10:05:36;;;;;;;0.30;0.30;;;16.40;99.90;;;;;;5060751;28;20070;-79
2023/09/23 10:08:32;;;;;;;0.30;0.30;;;16.40;99.90;;;;;;5043605;28;20032;-80
2023/09/23 10:11:06;;;;;;;0.32;0.30;;;16.30;99.90;;;;;;5044051;28;20048;-80
2023/09/23 10:13:51;;;;;;;0.57;0.35;;;16.50;99.90;;;;;;5068339;28;20280;-79
2023/09/23 10:16:19;;;;;;;0.75;0.20;;;16.70;99.90;;;;;;5055202;28;20025;-79
2023/09/23 10:18:57;;;;;;;0.70;0.55;;;16.90;99.90;;;;;;5056119;28;20028;-79
2023/09/23 10:21:24;;;;;;;1.90;0.37;;;17.10;99.90;;;;;;5070597;28;20325;-78
2023/09/23 10:23:52;;;;;;;0.45;0.32;;;17.30;99.90;;;;;;5048012;28;20059;-79
2023/09/23 10:26:20;;;;;;;0.43;0.43;;;17.20;99.90;;;;;;5064965;28;20036;-79
2023/09/23 10:28:57;;;;;;;0.30;0.30;;;17.30;99.80;;;;;;5054509;28;20059;-79
2023/09/23 10:31:26;;;;;;;0.77;0.40;;;17.30;99.30;;;;;;5039531;28;20045;-77
2023/09/23 10:33:51;;;;;;;0.95;0.22;;;17.00;99.40;;;;;;5053640;28;20048;-79
2023/09/23 10:36:21;;;;;;;1.13;0.40;;;17.10;98.20;;;;;;5057600;28;20060;-79
2023/09/23 10:39:16;;;;;;;0.93;0.93;;;17.30;99.60;;;;;;5076113;28;20277;-80
2023/09/23 10:41:42;;;;;;;0.73;0.43;;;17.60;96.10;;;;;;5041782;28;20041;-80
2023/09/23 10:44:09;;;;;;;1.60;0.60;;;17.90;96.60;;;;;;5061418;28;20037;-81
2023/09/23 10:46:41;;;;;;;0.75;0.52;;;17.80;93.10;;;;;;5057373;28;20033;-78
2023/09/23 10:49:32;;;;;;;0.77;0.52;;;17.90;94.70;;;;;;5043688;28;20053;-79
2023/09/23 10:52:05;;;;;;;1.65;1.38;;;18.50;97.30;;;;;;5073906;28;20211;-80
2023/09/23 10:54:31;;;;;;;0.32;0.28;;;18.60;94.60;;;;;;5074361;28;20037;-80
2023/09/23 10:57:00;;;;;;;0.63;0.40;;;18.80;93.20;;;;;;5058131;28;20021;-81
2023/09/23 10:59:27;;;;;;;2.08;0.45;;;18.70;92.10;;;;;;5056588;28;20037;-81
2023/09/23 11:01:55;;;;;;;1.23;0.77;;;18.60;92.40;;;;;;5058698;28;20055;-79
2023/09/23 11:04:23;;;;;;;0.50;0.50;;;18.70;93.90;;;;;;5039295;28;20029;-79
2023/09/23 11:06:48;;;;;;;1.10;0.70;;;18.90;90.20;;;;;;5053715;28;20027;-78
2023/09/23 11:09:14;;;;;;;1.83;0.60;;;19.00;91.70;;;;;;5047703;28;20060;-78
2023/09/23 11:11:41;;;;;;;2.38;0.63;;;18.90;90.60;;;;;;5044513;28;20076;-80
2023/09/23 11:14:13;;;;;;;0.35;0.35;;;18.50;90.60;;;;;;5051733;28;20033;-81
2023/09/23 11:16:45;;;;;;;0.75;0.50;;;18.40;90.50;;;;;;5057319;28;20029;-78
2023/09/23 11:19:10;;;;;;;0.57;0.57;;;18.40;91.20;;;;;;5090949;28;20028;-79
2023/09/23 11:21:46;;;;;;;0.98;0.43;;;18.90;90.90;;;;;;5061561;28;20052;-79
2023/09/23 11:24:43;;;;;;;2.55;0.77;;;18.90;91.40;;;;;;5066316;28;20032;-79
2023/09/23 11:27:08;;;;;;;0.35;0.32;;;19.00;87.80;;;;;;5049789;28;20029;-78
2023/09/23 11:29:34;;;;;;;1.05;0.50;;;19.10;90.00;;;;;;5055797;28;20035;-78
2023/09/23 11:32:00;;;;;;;1.95;0.70;;;18.80;89.50;;;;;;5051484;28;20035;-78
2023/09/23 11:34:27;;;;;;;1.05;0.55;;;18.40;90.60;;;;;;5058218;28;20056;-79
2023/09/23 11:36:52;;;;;;;0.40;0.30;;;18.40;92.50;;;;;;5049347;28;20111;-78
2023/09/23 11:39:18;;;;;;;0.47;0.47;;;18.70;91.50;;;;;;5052260;28;20028;-80
2023/09/23 11:41:43;;;;;;;3.15;0.75;;;18.90;91.90;;;;;;5041736;28;20021;-78
2023/09/23 11:44:09;;;;;;;0.28;0.28;;;19.20;92.30;;;;;;5052556;28;20028;-78
2023/09/23 11:46:35;;;;;;;1.15;0.40;;;19.40;91.00;;;;;;5053027;28;20032;-79
2023/09/23 11:49:01;;;;;;;4.30;1.02;;;19.30;90.40;;;;;;5045361;28;20225;-81
2023/09/23 11:51:26;;;;;;;3.65;0.57;;;19.50;90.90;;;;;;5052685;28;20028;-81
2023/09/23 11:53:52;;;;;;;2.28;0.60;;;19.50;88.50;;;;;;5075384;28;20032;-78
2023/09/23 11:56:20;;;;;;;0.40;0.40;;;19.00;87.60;;;;;;5066895;28;20016;-79
2023/09/23 11:58:46;;;;;;;2.65;0.40;;;19.50;86.20;;;;;;5062910;28;20028;-81
2023/09/23 12:01:12;;;;;;;0.68;0.35;;;19.70;89.60;;;;;;5062218;28;20032;-82
2023/09/23 12:03:38;;;;;;;1.02;0.40;;;20.30;82.70;;;;;;5081000;28;20031;-81
2023/09/23 12:06:03;;;;;;;1.40;0.52;;;20.40;81.10;;;;;;5074528;28;20024;-78
2023/09/23 12:08:30;;;;;;;0.57;0.57;;;19.80;80.40;;;;;;5076948;28;20009;-79
2023/09/23 12:10:55;;;;;;;1.75;0.70;;;19.20;82.10;;;;;;5095537;28;20254;-79
2023/09/23 12:13:24;;;;;;;0.50;0.45;;;18.70;86.40;;;;;;5078849;28;20084;-78
2023/09/23 12:15:54;;;;;;;1.00;0.68;;;19.10;87.20;;;;;;5076469;28;20017;-79
2023/09/23 12:18:20;;;;;;;2.60;0.50;;;20.70;85.00;;;;;;5063749;28;20085;-81
2023/09/23 12:20:45;;;;;;;0.93;0.43;;;22.10;79.90;;;;;;5066484;28;20024;-80
2023/09/23 12:23:15;;;;;;;1.05;0.30;;;21.70;80.40;;;;;;5063030;28;20127;-80
2023/09/23 12:25:43;;;;;;;;;;;21.70;79.60;;;;;;5077552;28;20103;-79
2023/09/23 12:28:29;;;;;;;0.60;0.60;;;21.30;77.90;;;;;;5094542;28;20406;-78
2023/09/23 12:30:55;;;;;;;0.40;0.40;;;20.40;80.50;;;;;;5076614;28;20024;-77
2023/09/23 12:33:20;;;;;;;2.75;0.40;;;21.00;78.70;;;;;;5072536;28;20024;-79
2023/09/23 12:35:47;;;;;;;1.08;0.70;;;22.20;77.10;;;;;;5083887;28;20031;-78
2023/09/23 12:38:12;;;;;;;2.13;0.65;;;24.00;74.20;;;;;;5085048;28;20017;-78
2023/09/23 12:40:38;;;;;;;0.13;0.13;;;24.40;68.40;;;;;;5070331;28;20028;-80
2023/09/23 12:43:04;;;;;;;1.00;0.90;;;25.20;69.20;;;;;;5066622;28;20029;-85
2023/09/23 12:45:30;;;;;;;0.20;0.20;;;25.70;70.10;;;;;;5068630;28;20044;-80
2023/09/23 12:47:55;;;;;;;0.50;0.50;;;26.20;65.40;;;;;;5069483;28;20048;-79
2023/09/23 12:50:21;;;;;;;1.33;0.20;;;25.40;63.70;;;;;;5076809;28;20021;-79
2023/09/23 12:52:47;;;;;;;1.67;0.43;;;24.80;64.00;;;;;;5070308;28;20397;-80
2023/09/23 12:55:15;;;;;;;0.65;0.65;;;25.00;66.20;;;;;;5093289;28;20015;-78
2023/09/23 12:58:01;;;;;;;2.58;0.32;;;24.10;63.30;;;;;;5073641;28;20072;-81
2023/09/23 13:00:27;;;;;;;0.63;0.60;;;25.10;63.90;;;;;;5019512;28;20033;-80
2023/09/23 13:02:52;;;;;;;0.70;0.50;;;25.50;61.80;;;;;;5036211;28;20469;-83
2023/09/23 13:05:18;;;;;;;0.60;0.20;;;25.40;61.60;;;;;;5034191;28;20094;-89
2023/09/23 13:07:44;;;;;;;0.98;0.52;;;25.80;61.50;;;;;;5034266;28;20033;-79
2023/09/23 13:10:11;;;;;;;1.30;0.43;;;26.40;59.70;;;;;;5037447;28;20218;-79
2023/09/23 13:12:38;;;;;;;0.55;0.35;;;25.60;61.90;;;;;;5036711;28;20029;-84
2023/09/23 13:15:05;;;;;;;0.28;0.20;;;25.10;62.40;;;;;;5039383;28;20120;-84
2023/09/23 13:17:30;;;;;;;1.10;0.68;;;24.30;62.30;;;;;;5068232;28;20025;-84
2023/09/23 13:19:57;;;;;;;0.43;0.40;;;24.40;61.80;;;;;;5038147;28;20124;-84
2023/09/23 13:22:22;;;;;;;0.50;0.50;;;23.70;61.40;;;;;;5056787;28;20092;-79
2023/09/23 13:24:49;;;;;;;0.70;0.50;;;22.90;63.50;;;;;;5059749;28;20067;-80
2023/09/23 13:27:16;;;;;;;1.90;0.40;;;21.80;65.10;;;;;;5069223;28;20037;-85
2023/09/23 13:29:41;;;;;;;0.38;0.32;;;22.20;66.70;;;;;;5039511;28;20032;-84